createdAt,value
2022-08-19T00:00:28.955Z,21.42
2022-08-19T00:03:10.548Z,21.36
2022-08-19T00:05:44.330Z,21.40
2022-08-19T00:08:18.235Z,21.37
2022-08-19T00:10:52.136Z,21.36
2022-08-19T00:13:26.016Z,21.31
2022-08-19T00:16:02.619Z,21.35
2022-08-19T00:18:37.349Z,21.28
2022-08-19T00:21:11.594Z,21.30
2022-08-19T00:23:45.893Z,21.28
2022-08-19T00:26:19.902Z,21.25
2022-08-19T00:28:53.502Z,21.22
2022-08-19T00:31:29.238Z,21.20
2022-08-19T00:34:04.876Z,21.19
2022-08-19T00:36:39.192Z,21.18
2022-08-19T00:39:13.424Z,21.15
2022-08-19T00:41:51.005Z,21.12
2022-08-19T00:44:32.032Z,21.09
2022-08-19T00:47:07.256Z,21.06
2022-08-19T00:49:55.607Z,21.03
2022-08-19T00:52:36.899Z,21.01
2022-08-19T00:55:13.302Z,20.99
2022-08-19T00:57:55.939Z,20.93
2022-08-19T01:00:31.112Z,20.86
2022-08-19T01:03:04.564Z,20.87
2022-08-19T01:05:40.008Z,20.89
2022-08-19T01:08:13.641Z,20.87
2022-08-19T01:11:00.210Z,20.87
2022-08-19T01:13:44.564Z,20.83
2022-08-19T01:16:30.408Z,20.80
2022-08-19T01:19:04.444Z,20.78
2022-08-19T01:21:51.165Z,20.76
2022-08-19T01:24:24.585Z,20.70
2022-08-19T01:26:58.332Z,20.74
2022-08-19T01:29:32.351Z,20.73
2022-08-19T01:32:06.551Z,20.72
2022-08-19T01:34:40.298Z,20.71
2022-08-19T01:37:14.863Z,20.69
2022-08-19T01:40:00.159Z,20.68
2022-08-19T01:42:34.215Z,20.61
2022-08-19T01:45:08.857Z,20.61
2022-08-19T01:47:43.376Z,20.66
2022-08-19T01:50:38.683Z,20.66
2022-08-19T01:53:15.025Z,20.66
2022-08-19T01:55:50.175Z,20.65
2022-08-19T01:58:27.546Z,20.66
2022-08-19T02:01:05.014Z,20.67
2022-08-19T02:03:38.702Z,20.66
2022-08-19T02:06:12.597Z,20.64
2022-08-19T02:08:50.772Z,20.58
2022-08-19T02:11:33.226Z,20.63
2022-08-19T02:14:09.581Z,20.52
2022-08-19T02:16:43.398Z,20.60
2022-08-19T02:19:17.245Z,20.55
2022-08-19T02:21:51.677Z,20.50
2022-08-19T02:24:26.706Z,20.52
2022-08-19T02:27:00.176Z,20.50
2022-08-19T02:29:33.592Z,20.47
2022-08-19T02:32:07.316Z,20.46
2022-08-19T02:34:42.130Z,20.43
2022-08-19T02:37:35.019Z,20.41
2022-08-19T02:40:12.693Z,20.34
2022-08-19T02:42:47.260Z,20.33
2022-08-19T02:45:21.724Z,20.36
2022-08-19T02:47:55.504Z,20.35
2022-08-19T02:50:29.738Z,20.29
2022-08-19T02:53:03.386Z,20.31
2022-08-19T02:55:45.967Z,20.31
2022-08-19T02:58:23.326Z,20.32
2022-08-19T03:01:00.501Z,20.31
2022-08-19T03:03:34.723Z,20.30
2022-08-19T03:06:16.575Z,20.29
2022-08-19T03:08:54.924Z,20.28
2022-08-19T03:11:34.492Z,20.24
2022-08-19T03:14:11.099Z,20.28
2022-08-19T03:16:55.311Z,20.27
2022-08-19T03:19:30.037Z,20.25
2022-08-19T03:22:05.895Z,20.26
2022-08-19T03:24:39.692Z,20.23
2022-08-19T03:27:13.665Z,20.29
2022-08-19T03:29:47.722Z,20.29
2022-08-19T03:32:32.947Z,20.29
2022-08-19T03:35:09.589Z,20.30
2022-08-19T03:37:43.142Z,20.32
2022-08-19T03:40:16.796Z,20.28
2022-08-19T03:42:51.397Z,20.34
2022-08-19T03:45:25.534Z,20.35
2022-08-19T03:48:01.339Z,20.38
2022-08-19T03:50:36.673Z,20.40
2022-08-19T03:53:10.815Z,20.43
2022-08-19T03:55:45.936Z,20.47
2022-08-19T03:58:19.553Z,20.49
2022-08-19T04:00:54.116Z,20.52
2022-08-19T04:03:30.485Z,20.55
2022-08-19T04:06:12.685Z,20.58
2022-08-19T04:08:45.422Z,20.61
2022-08-19T04:11:24.206Z,20.65
2022-08-19T04:14:22.322Z,20.70
2022-08-19T04:16:55.670Z,20.73
2022-08-19T04:19:30.030Z,20.76
2022-08-19T04:22:03.083Z,20.80
2022-08-19T04:24:36.637Z,20.83
2022-08-19T04:27:09.805Z,20.86
2022-08-19T04:29:42.721Z,20.90
2022-08-19T04:32:18.359Z,20.95
2022-08-19T04:35:02.391Z,20.97
2022-08-19T04:37:46.712Z,21.00
2022-08-19T04:40:38.769Z,21.06
2022-08-19T04:43:14.041Z,21.12
2022-08-19T04:45:48.878Z,21.17
2022-08-19T04:48:29.650Z,21.20
2022-08-19T04:51:04.315Z,21.19
2022-08-19T04:53:39.611Z,21.22
2022-08-19T04:56:15.367Z,21.25
2022-08-19T04:58:49.473Z,21.34
2022-08-19T05:01:26.248Z,21.39
2022-08-19T05:04:02.895Z,21.48
2022-08-19T05:06:38.645Z,21.48
2022-08-19T05:09:12.484Z,21.52
2022-08-19T05:11:46.089Z,21.67
2022-08-19T05:14:19.347Z,21.74
2022-08-19T05:17:06.416Z,21.82
2022-08-19T05:20:07.208Z,21.91
2022-08-19T05:22:42.688Z,21.98
2022-08-19T05:25:20.911Z,22.05
2022-08-19T05:27:55.145Z,22.16
2022-08-19T05:30:42.336Z,22.26
2022-08-19T05:33:23.580Z,22.32
2022-08-19T05:35:58.783Z,22.41
2022-08-19T05:38:32.391Z,22.49
2022-08-19T05:41:11.685Z,22.57
2022-08-19T05:43:45.514Z,22.65
2022-08-19T05:46:27.897Z,22.72
2022-08-19T05:49:05.685Z,22.79
2022-08-19T05:51:40.488Z,22.86
2022-08-19T05:54:15.172Z,22.92
2022-08-19T05:56:48.893Z,22.99
2022-08-19T05:59:24.923Z,23.01
2022-08-19T06:01:59.039Z,23.11
2022-08-19T06:04:32.316Z,23.22
2022-08-19T06:07:12.592Z,23.26
2022-08-19T06:10:00.501Z,23.37
2022-08-19T06:12:37.030Z,23.48
2022-08-19T06:15:17.681Z,23.55
2022-08-19T06:17:51.305Z,23.55
2022-08-19T06:20:52.331Z,23.65
2022-08-19T06:23:21.584Z,23.67
2022-08-19T06:25:57.811Z,23.79
2022-08-19T06:28:31.700Z,23.84
2022-08-19T06:31:10.656Z,23.91
2022-08-19T06:33:43.982Z,23.97
2022-08-19T06:36:35.499Z,24.00
2022-08-19T06:39:15.048Z,24.14
2022-08-19T06:41:53.319Z,24.23
2022-08-19T06:44:30.471Z,24.30
2022-08-19T06:47:14.630Z,24.39
2022-08-19T06:50:05.723Z,24.45
2022-08-19T06:52:41.002Z,24.55
2022-08-19T06:55:14.829Z,24.63
2022-08-19T06:57:49.706Z,24.63
2022-08-19T07:00:23.498Z,24.73
2022-08-19T07:03:00.903Z,24.73
2022-08-19T07:05:45.526Z,24.80
2022-08-19T07:08:19.751Z,24.90
2022-08-19T07:10:53.412Z,24.99
2022-08-19T07:13:28.101Z,25.09
2022-08-19T07:16:01.918Z,25.15
2022-08-19T07:18:41.361Z,25.18
2022-08-19T07:21:29.673Z,25.29
2022-08-19T07:24:07.135Z,25.31
2022-08-19T07:26:46.567Z,25.45
2022-08-19T07:29:28.582Z,25.51
2022-08-19T07:32:02.663Z,25.60
2022-08-19T07:34:38.865Z,25.70
2022-08-19T07:37:13.857Z,25.79
2022-08-19T07:39:47.516Z,25.85
2022-08-19T07:42:22.404Z,25.94
2022-08-19T07:44:56.174Z,26.02
2022-08-19T07:47:58.759Z,26.06
2022-08-19T07:50:25.935Z,26.17
2022-08-19T07:53:00.319Z,26.23
2022-08-19T07:55:41.793Z,26.34
2022-08-19T07:58:24.605Z,26.40
2022-08-19T08:00:58.310Z,26.53
2022-08-19T08:03:50.678Z,26.62
2022-08-19T08:06:41.903Z,26.82
2022-08-19T08:09:27.183Z,26.93
2022-08-19T08:12:33.087Z,27.08
2022-08-19T08:15:08.311Z,27.12
2022-08-19T08:17:49.169Z,27.21
2022-08-19T08:20:27.799Z,27.22
2022-08-19T08:23:20.733Z,27.26
2022-08-19T08:25:56.150Z,27.28
2022-08-19T08:28:30.661Z,27.28
2022-08-19T08:31:09.369Z,27.35
2022-08-19T08:33:45.222Z,27.45
2022-08-19T08:36:19.241Z,27.53
2022-08-19T08:42:10.019Z,27.64
2022-08-19T08:45:17.899Z,27.67
2022-08-19T08:47:56.130Z,27.84
2022-08-19T08:50:43.545Z,27.93
2022-08-19T08:53:29.243Z,28.09
2022-08-19T08:56:09.991Z,28.17
2022-08-19T08:59:20.111Z,28.19
2022-08-19T09:01:53.612Z,28.20
2022-08-19T09:04:27.110Z,28.24
2022-08-19T09:07:44.647Z,28.28
2022-08-19T09:10:47.250Z,28.32
2022-08-19T09:14:02.469Z,28.34
2022-08-19T09:16:35.727Z,28.30
2022-08-19T09:19:12.625Z,28.40
2022-08-19T09:21:46.926Z,28.43
2022-08-19T09:24:21.446Z,28.46
2022-08-19T09:26:54.763Z,28.50
2022-08-19T09:29:29.221Z,28.48
2022-08-19T09:32:02.526Z,28.45
2022-08-19T09:34:37.905Z,28.54
2022-08-19T09:37:12.490Z,28.54
2022-08-19T09:39:48.895Z,28.58
2022-08-19T09:42:29.973Z,28.58
2022-08-19T09:45:06.150Z,28.74
2022-08-19T09:47:45.113Z,28.85
2022-08-19T09:50:21.812Z,29.01
2022-08-19T09:52:57.577Z,29.04
2022-08-19T09:55:32.838Z,29.04
2022-08-19T09:58:06.818Z,29.04
2022-08-19T10:00:41.677Z,29.01
2022-08-19T10:03:15.334Z,28.99
2022-08-19T10:05:55.101Z,29.10
2022-08-19T10:08:37.884Z,29.26
2022-08-19T10:11:28.621Z,29.36
2022-08-19T10:14:10.048Z,29.44
2022-08-19T10:16:44.485Z,29.61
2022-08-19T10:19:25.488Z,29.74
2022-08-19T10:22:01.421Z,29.91
2022-08-19T10:24:35.214Z,30.05
2022-08-19T10:27:08.966Z,30.01
2022-08-19T10:29:46.393Z,30.01
2022-08-19T10:32:20.730Z,30.06
2022-08-19T10:35:10.674Z,30.24
2022-08-19T10:37:56.707Z,30.37
2022-08-19T10:40:38.445Z,30.58
2022-08-19T10:43:11.908Z,30.63
2022-08-19T10:45:52.202Z,30.62
2022-08-19T10:48:28.044Z,30.64
2022-08-19T10:51:23.002Z,30.64
2022-08-19T10:53:57.186Z,30.63
2022-08-19T10:56:50.203Z,30.42
2022-08-19T10:59:32.597Z,30.22
2022-08-19T11:02:14.837Z,30.13
2022-08-19T11:04:51.390Z,30.17
2022-08-19T11:07:27.872Z,30.24
2022-08-19T11:10:00.573Z,30.22
2022-08-19T11:12:35.196Z,30.21
2022-08-19T11:15:12.270Z,30.17
2022-08-19T11:17:46.317Z,30.20
2022-08-19T11:20:20.408Z,30.20
2022-08-19T11:22:55.941Z,30.26
2022-08-19T11:25:29.472Z,30.28
2022-08-19T11:28:02.885Z,30.20
2022-08-19T11:30:36.560Z,30.13
2022-08-19T11:33:12.863Z,30.09
2022-08-19T11:35:47.270Z,30.15
2022-08-19T11:38:21.178Z,30.08
2022-08-19T11:41:07.376Z,30.08
2022-08-19T11:43:41.178Z,30.04
2022-08-19T11:46:17.370Z,30.11
2022-08-19T11:48:52.117Z,30.21
2022-08-19T11:51:27.055Z,30.22
2022-08-19T11:54:01.124Z,30.22
2022-08-19T11:56:35.199Z,30.18
2022-08-19T11:59:14.056Z,30.21
2022-08-19T12:01:50.294Z,30.19
2022-08-19T12:04:23.990Z,30.15
2022-08-19T12:06:57.541Z,30.18
2022-08-19T12:09:30.963Z,30.24
2022-08-19T12:12:04.743Z,30.31
2022-08-19T12:14:38.716Z,30.24
2022-08-19T12:17:12.827Z,30.20
2022-08-19T12:19:47.068Z,30.24
2022-08-19T12:22:22.336Z,30.33
2022-08-19T12:24:56.417Z,30.40
2022-08-19T12:27:40.028Z,30.53
2022-08-19T12:30:16.566Z,30.59
2022-08-19T12:32:52.991Z,30.63
2022-08-19T12:35:27.128Z,30.71
2022-08-19T12:38:01.326Z,30.73
2022-08-19T12:40:34.534Z,30.77
2022-08-19T12:43:08.540Z,30.77
2022-08-19T12:45:42.728Z,30.86
2022-08-19T12:48:34.408Z,30.92
2022-08-19T12:51:21.349Z,31.04
2022-08-19T12:53:54.714Z,31.04
2022-08-19T12:56:28.859Z,31.10
2022-08-19T12:59:04.202Z,31.12
2022-08-19T13:01:37.561Z,31.07
2022-08-19T13:04:11.210Z,30.99
2022-08-19T13:06:44.393Z,31.01
2022-08-19T13:09:17.679Z,30.97
2022-08-19T13:11:50.794Z,30.98
2022-08-19T13:14:24.534Z,31.02
2022-08-19T13:17:01.254Z,31.05
2022-08-19T13:19:34.817Z,30.99
2022-08-19T13:22:13.328Z,30.99
2022-08-19T13:24:50.115Z,30.96
2022-08-19T13:27:23.719Z,30.92
2022-08-19T13:30:16.079Z,30.89
2022-08-19T13:33:07.322Z,30.75
2022-08-19T13:36:02.211Z,30.68
2022-08-19T13:38:35.423Z,30.74
2022-08-19T13:41:13.218Z,30.83
2022-08-19T13:43:50.646Z,30.87
2022-08-19T13:46:24.079Z,30.93
2022-08-19T13:48:57.662Z,31.04
2022-08-19T13:51:30.853Z,31.07
2022-08-19T13:54:03.925Z,31.07
2022-08-19T13:56:38.240Z,31.11
2022-08-19T13:59:14.837Z,31.06
2022-08-19T14:01:48.506Z,31.06
2022-08-19T14:04:22.165Z,31.05
2022-08-19T14:06:56.304Z,31.07
2022-08-19T14:09:30.026Z,31.09
2022-08-19T14:12:03.331Z,31.15
2022-08-19T14:14:39.760Z,31.14
2022-08-19T14:17:13.545Z,31.11
2022-08-19T14:19:48.217Z,31.08
2022-08-19T14:22:22.348Z,31.09
2022-08-19T14:24:56.058Z,31.03
2022-08-19T14:27:29.162Z,31.04
2022-08-19T14:30:04.180Z,31.07
2022-08-19T14:32:38.785Z,31.08
2022-08-19T14:35:13.913Z,31.11
2022-08-19T14:37:48.761Z,31.17
2022-08-19T14:40:24.519Z,31.19
2022-08-19T14:43:05.665Z,31.20
2022-08-19T14:45:42.315Z,31.19
2022-08-19T14:48:19.386Z,31.29
2022-08-19T14:50:53.944Z,31.34
2022-08-19T14:53:27.343Z,31.37
2022-08-19T14:56:01.919Z,31.33
2022-08-19T14:58:37.460Z,31.34
2022-08-19T15:01:13.614Z,31.31
2022-08-19T15:03:47.927Z,31.32
2022-08-19T15:06:20.975Z,31.29
2022-08-19T15:08:57.071Z,31.23
2022-08-19T15:11:34.186Z,31.27
2022-08-19T15:14:07.617Z,31.20
2022-08-19T15:16:43.547Z,31.19
2022-08-19T15:19:18.205Z,31.16
2022-08-19T15:21:51.755Z,31.10
2022-08-19T15:24:26.754Z,31.11
2022-08-19T15:27:00.419Z,31.10
2022-08-19T15:29:33.959Z,31.12
2022-08-19T15:32:08.261Z,31.07
2022-08-19T15:34:41.816Z,31.04
2022-08-19T15:37:14.902Z,31.02
2022-08-19T15:39:49.515Z,30.97
2022-08-19T15:42:29.985Z,30.87
2022-08-19T15:45:04.369Z,30.78
2022-08-19T15:47:37.826Z,30.65
2022-08-19T15:50:12.665Z,30.55
2022-08-19T15:53:01.209Z,30.48
2022-08-19T15:55:38.186Z,30.42
2022-08-19T15:58:32.320Z,30.27
2022-08-19T16:01:28.493Z,30.19
2022-08-19T16:04:21.439Z,30.09
2022-08-19T16:06:57.360Z,29.92
2022-08-19T16:09:35.230Z,29.86
2022-08-19T16:12:09.054Z,29.82
2022-08-19T16:14:42.085Z,29.75
2022-08-19T16:17:15.239Z,29.66
2022-08-19T16:19:52.172Z,29.58
2022-08-19T16:22:35.200Z,29.53
2022-08-19T16:25:10.859Z,29.42
2022-08-19T16:27:49.122Z,29.39
2022-08-19T16:30:48.776Z,29.30
2022-08-19T16:33:26.973Z,29.20
2022-08-19T16:36:07.643Z,29.12
2022-08-19T16:38:45.494Z,29.03
2022-08-19T16:41:18.995Z,28.98
2022-08-19T16:43:53.869Z,28.88
2022-08-19T16:46:28.016Z,28.82
2022-08-19T16:49:01.032Z,28.73
2022-08-19T16:51:34.323Z,28.63
2022-08-19T16:54:07.697Z,28.53
2022-08-19T16:56:40.837Z,28.46
2022-08-19T16:59:14.254Z,28.34
2022-08-19T17:01:46.993Z,28.25
2022-08-19T17:04:19.834Z,28.21
2022-08-19T17:06:53.179Z,28.11
2022-08-19T17:09:26.407Z,28.00
2022-08-19T17:11:59.202Z,27.90
2022-08-19T17:14:32.080Z,27.75
2022-08-19T17:17:05.340Z,27.69
2022-08-19T17:19:41.599Z,27.59
2022-08-19T17:22:15.484Z,27.49
2022-08-19T17:24:48.398Z,27.40
2022-08-19T17:27:21.252Z,27.29
2022-08-19T17:29:54.370Z,27.18
2022-08-19T17:32:27.753Z,27.10
2022-08-19T17:35:00.554Z,27.00
2022-08-19T17:37:34.594Z,26.91
2022-08-19T17:40:09.929Z,26.82
2022-08-19T17:42:43.050Z,26.72
2022-08-19T17:45:16.726Z,26.63
2022-08-19T17:47:49.524Z,26.51
2022-08-19T17:50:23.892Z,26.42
2022-08-19T17:52:57.557Z,26.34
2022-08-19T17:55:31.526Z,26.28
2022-08-19T17:58:05.878Z,26.20
2022-08-19T18:00:53.758Z,26.07
2022-08-19T18:03:30.666Z,26.03
2022-08-19T18:06:03.501Z,25.94
2022-08-19T18:08:47.344Z,25.88
2022-08-19T18:11:20.502Z,25.76
2022-08-19T18:13:54.099Z,25.68
2022-08-19T18:16:28.296Z,25.62
2022-08-19T18:19:01.567Z,25.61
2022-08-19T18:21:36.440Z,25.51
2022-08-19T18:24:09.230Z,25.41
2022-08-19T18:26:42.425Z,25.30
2022-08-19T18:29:16.318Z,25.33
2022-08-19T18:31:49.388Z,25.25
2022-08-19T18:34:22.357Z,25.16
2022-08-19T18:36:55.889Z,25.11
2022-08-19T18:39:47.079Z,25.04
2022-08-19T18:42:40.008Z,24.88
2022-08-19T18:45:31.825Z,24.83
2022-08-19T18:48:27.822Z,24.77
2022-08-19T18:51:03.091Z,24.70
2022-08-19T18:53:39.120Z,24.63
2022-08-19T18:56:14.596Z,24.53
2022-08-19T18:58:48.052Z,24.49
2022-08-19T19:01:23.867Z,24.51
2022-08-19T19:03:57.760Z,24.46
2022-08-19T19:06:38.512Z,24.40
2022-08-19T19:09:21.794Z,24.30
2022-08-19T19:12:00.736Z,24.25
2022-08-19T19:14:49.113Z,24.20
2022-08-19T19:17:27.939Z,24.14
2022-08-19T19:20:01.316Z,24.07
2022-08-19T19:22:33.992Z,24.03
2022-08-19T19:25:08.618Z,24.00
2022-08-19T19:27:41.234Z,23.97
2022-08-19T19:30:14.729Z,23.93
2022-08-19T19:32:47.579Z,23.88
2022-08-19T19:35:20.468Z,23.78
2022-08-19T19:37:53.322Z,23.76
2022-08-19T19:40:26.614Z,23.77
2022-08-19T19:43:00.429Z,23.65
2022-08-19T19:45:33.148Z,23.67
2022-08-19T19:48:06.723Z,23.64
2022-08-19T19:50:39.673Z,23.61
2022-08-19T19:53:15.691Z,23.56
2022-08-19T19:55:49.200Z,23.49
2022-08-19T19:58:28.708Z,23.43
2022-08-19T20:01:09.631Z,23.34
2022-08-19T20:03:45.175Z,23.33
2022-08-19T20:06:20.069Z,23.29
2022-08-19T20:09:12.215Z,23.26
2022-08-19T20:11:49.181Z,23.19
2022-08-19T20:14:29.474Z,23.15
2022-08-19T20:17:03.430Z,23.06
2022-08-19T20:19:37.969Z,23.09
2022-08-19T20:22:13.397Z,23.06
2022-08-19T20:24:46.375Z,23.04
2022-08-19T20:27:21.028Z,23.00
2022-08-19T20:30:04.574Z,22.97
2022-08-19T20:32:38.925Z,22.93
2022-08-19T20:35:13.298Z,22.91
2022-08-19T20:37:46.377Z,22.88
2022-08-19T20:40:21.852Z,22.80
2022-08-19T20:42:55.228Z,22.75
2022-08-19T20:45:33.448Z,22.73
2022-08-19T20:48:12.803Z,22.69
2022-08-19T20:50:46.254Z,22.59
2022-08-19T20:53:23.659Z,22.53
2022-08-19T20:56:00.092Z,22.57
2022-08-19T20:58:32.924Z,22.53
2022-08-19T21:01:07.598Z,22.50
2022-08-19T21:03:44.023Z,22.47
2022-08-19T21:06:17.451Z,22.44
2022-08-19T21:08:54.453Z,22.39
2022-08-19T21:11:27.551Z,22.37
2022-08-19T21:14:01.177Z,22.35
2022-08-19T21:16:34.704Z,22.27
2022-08-19T21:19:08.084Z,22.26
2022-08-19T21:21:41.241Z,22.23
2022-08-19T21:24:16.106Z,22.15
2022-08-19T21:26:51.532Z,22.19
2022-08-19T21:29:25.120Z,22.15
2022-08-19T21:31:58.804Z,22.13
2022-08-19T21:34:32.332Z,22.10
2022-08-19T21:37:06.132Z,22.07
2022-08-19T21:39:46.892Z,22.04
2022-08-19T21:42:23.047Z,22.02
2022-08-19T21:44:56.556Z,21.99
2022-08-19T21:47:29.331Z,21.90
2022-08-19T21:50:02.142Z,21.92
2022-08-19T21:52:35.364Z,21.83
2022-08-19T21:55:10.737Z,21.86
2022-08-19T21:57:43.620Z,21.79
2022-08-19T22:00:27.292Z,21.73
2022-08-19T22:03:08.165Z,21.71
2022-08-19T22:05:41.561Z,21.63
2022-08-19T22:08:15.972Z,21.63
2022-08-19T22:10:50.069Z,21.62
2022-08-19T22:13:23.525Z,21.64
2022-08-19T22:15:57.166Z,21.63
2022-08-19T22:18:30.956Z,21.64
2022-08-19T22:21:11.709Z,21.63
2022-08-19T22:23:48.048Z,21.63
2022-08-19T22:26:21.778Z,21.62
2022-08-19T22:28:56.025Z,21.61
2022-08-19T22:31:30.591Z,21.60
2022-08-19T22:34:05.505Z,21.59
2022-08-19T22:36:39.279Z,21.57
2022-08-19T22:39:13.187Z,21.52
2022-08-19T22:41:47.106Z,21.54
2022-08-19T22:44:21.023Z,21.54
2022-08-19T22:46:54.634Z,21.51
2022-08-19T22:49:28.332Z,21.52
2022-08-19T22:52:18.601Z,21.50
2022-08-19T22:54:57.680Z,21.44
2022-08-19T22:57:31.210Z,21.40
2022-08-19T23:00:08.358Z,21.42
2022-08-19T23:02:52.293Z,21.46
2022-08-19T23:05:30.169Z,21.44
2022-08-19T23:08:04.233Z,21.43
2022-08-19T23:10:38.002Z,21.41
2022-08-19T23:13:11.484Z,21.40
2022-08-19T23:15:46.387Z,21.33
2022-08-19T23:18:20.799Z,21.37
2022-08-19T23:20:56.701Z,21.35
2022-08-19T23:23:30.380Z,21.33
2022-08-19T23:26:03.079Z,21.26
2022-08-19T23:28:55.328Z,21.22
2022-08-19T23:31:30.438Z,21.23
2022-08-19T23:34:04.202Z,21.21
2022-08-19T23:36:37.937Z,21.17
2022-08-19T23:39:11.182Z,21.15
2022-08-19T23:41:44.680Z,21.09
2022-08-19T23:44:18.457Z,21.06
2022-08-19T23:46:54.926Z,21.03
2022-08-19T23:49:29.397Z,20.99
2022-08-19T23:52:03.216Z,20.99
2022-08-19T23:54:43.692Z,20.96
2022-08-19T23:57:21.706Z,20.94
2022-08-19T23:59:54.938Z,20.89
